Time;durP1;ratioP1;P1;durP2;ratioP2;P2;SDS_P1;SDS_P2;PMS_P1;PMS_P2;Temp;Humidity;BMP_temperature;BMP_pressure;BME280_temperature;BME280_humidity;BME280_pressure;Samples;Min_cycle;Max_cycle;Signal;HPM_P1;HPM_P2
2024/03/16 00:02:17;;;;;;;8.95;5.55;;;;;;;;;;10446678;28;20075;-57
2024/03/16 00:07:17;;;;;;;8.75;5.03;;;;;;;;;;10446517;28;20283;-54
2024/03/16 00:12:18;;;;;;;8.10;5.53;;;;;;;;;;10446033;28;20322;-53
2024/03/16 00:17:20;;;;;;;7.60;5.55;;;;;;;;;;10435973;28;20033;-52
2024/03/16 00:22:21;;;;;;;7.43;5.50;;;;;;;;;;10442467;28;20176;-54
2024/03/16 00:27:21;;;;;;;8.90;5.20;;;;;;;;;;10440954;28;20199;-54
2024/03/16 00:32:22;;;;;;;15.15;5.75;;;;;;;;;;10437815;28;20025;-54
2024/03/16 00:37:23;;;;;;;8.85;5.55;;;;;;;;;;10449177;28;20033;-51
2024/03/16 00:42:23;;;;;;;9.73;5.32;;;;;;;;;;10450666;28;20041;-54
2024/03/16 00:47:24;;;;;;;8.57;5.55;;;;;;;;;;10452332;28;20032;-54
2024/03/16 00:52:24;;;;;;;12.63;5.15;;;;;;;;;;10437902;28;20057;-53
2024/03/16 00:57:25;;;;;;;6.90;5.00;;;;;;;;;;10450623;28;20500;-54
2024/03/16 01:02:26;;;;;;;6.43;5.05;;;;;;;;;;10446678;28;20417;-55
2024/03/16 01:07:26;;;;;;;6.60;4.72;;;;;;;;;;10448683;28;20049;-55
2024/03/16 01:12:27;;;;;;;6.40;4.93;;;;;;;;;;10450864;28;20025;-56
2024/03/16 01:17:27;;;;;;;7.72;5.25;;;;;;;;;;10449962;28;20029;-52
2024/03/16 01:22:28;;;;;;;9.32;4.53;;;;;;;;;;10444456;28;20021;-53
2024/03/16 01:27:28;;;;;;;5.55;4.80;;;;;;;;;;10450312;28;20029;-52
2024/03/16 01:32:29;;;;;;;9.30;5.00;;;;;;;;;;10449760;28;20029;-53
2024/03/16 01:37:30;;;;;;;7.03;4.55;;;;;;;;;;10448958;28;20028;-52
2024/03/16 01:42:30;;;;;;;5.22;4.57;;;;;;;;;;10451639;28;20571;-53
2024/03/16 01:47:31;;;;;;;6.15;4.57;;;;;;;;;;10437181;28;20030;-50
2024/03/16 01:52:32;;;;;;;8.10;4.55;;;;;;;;;;10446720;28;20037;-52
2024/03/16 01:57:32;;;;;;;5.25;4.32;;;;;;;;;;10450586;28;20036;-51
2024/03/16 02:02:37;;;;;;;9.93;4.85;;;;;;;;;;10448715;28;20044;-53
2024/03/16 02:07:38;;;;;;;5.00;4.00;;;;;;;;;;10450293;28;20510;-53
2024/03/16 02:12:38;;;;;;;5.53;4.63;;;;;;;;;;10449213;28;20036;-52
2024/03/16 02:17:40;;;;;;;8.68;4.55;;;;;;;;;;10449647;28;20032;-53
2024/03/16 02:22:44;;;;;;;5.90;4.45;;;;;;;;;;10437466;28;20044;-53
2024/03/16 02:27:45;;;;;;;13.60;5.97;;;;;;;;;;10449380;28;20126;-53
2024/03/16 02:32:45;;;;;;;6.40;4.65;;;;;;;;;;10436832;28;20457;-55
2024/03/16 02:37:46;;;;;;;7.93;4.65;;;;;;;;;;10436238;28;20515;-51
2024/03/16 02:42:47;;;;;;;5.97;4.72;;;;;;;;;;10449017;28;20517;-55
2024/03/16 02:47:48;;;;;;;6.05;4.22;;;;;;;;;;10448439;28;20036;-52
2024/03/16 02:52:48;;;;;;;5.22;4.40;;;;;;;;;;10446740;28;20519;-52
2024/03/16 02:57:49;;;;;;;5.10;4.15;;;;;;;;;;10447801;28;20047;-53
2024/03/16 03:02:49;;;;;;;6.45;4.38;;;;;;;;;;10445708;28;20043;-54
2024/03/16 03:07:50;;;;;;;4.43;3.92;;;;;;;;;;10445186;28;20473;-55
2024/03/16 03:12:51;;;;;;;8.25;4.75;;;;;;;;;;10443581;28;20346;-54
2024/03/16 03:17:51;;;;;;;8.82;4.60;;;;;;;;;;10436358;28;20021;-55
2024/03/16 03:22:52;;;;;;;4.45;4.05;;;;;;;;;;10446773;28;20535;-55
2024/03/16 03:27:52;;;;;;;5.95;4.05;;;;;;;;;;10446396;28;20500;-55
2024/03/16 03:32:53;;;;;;;4.20;3.80;;;;;;;;;;10445768;28;20040;-52
2024/03/16 03:37:53;;;;;;;4.72;4.15;;;;;;;;;;10434641;28;20040;-53
2024/03/16 03:42:59;;;;;;;5.78;4.10;;;;;;;;;;10444702;28;20044;-54
2024/03/16 03:48:00;;;;;;;5.82;4.00;;;;;;;;;;10447144;28;20405;-55
2024/03/16 03:53:02;;;;;;;5.25;4.72;;;;;;;;;;10446032;28;20032;-54
2024/03/16 03:58:03;;;;;;;4.65;3.97;;;;;;;;;;10447306;28;20033;-54
2024/03/16 04:03:06;;;;;;;5.82;4.00;;;;;;;;;;10447658;28;20040;-53
2024/03/16 04:08:07;;;;;;;6.53;4.43;;;;;;;;;;10445901;28;20029;-53
2024/03/16 04:13:07;;;;;;;4.57;3.95;;;;;;;;;;10440495;28;20032;-53
2024/03/16 04:18:08;;;;;;;9.18;4.10;;;;;;;;;;10453248;28;20464;-51
2024/03/16 04:23:09;;;;;;;6.18;4.32;;;;;;;;;;10454392;28;20488;-55
2024/03/16 04:28:11;;;;;;;6.18;4.32;;;;;;;;;;10452678;28;20380;-54
2024/03/16 04:33:12;;;;;;;4.70;4.03;;;;;;;;;;10441899;28;20100;-55
2024/03/16 04:38:13;;;;;;;7.15;3.78;;;;;;;;;;10453126;28;20047;-54
2024/03/16 04:43:13;;;;;;;3.95;3.55;;;;;;;;;;10452504;28;20288;-54
2024/03/16 04:48:14;;;;;;;4.15;3.58;;;;;;;;;;10452891;28;20032;-54
2024/03/16 04:53:15;;;;;;;4.72;3.97;;;;;;;;;;10452968;28;20116;-53
2024/03/16 04:58:16;;;;;;;8.00;3.88;;;;;;;;;;10453592;28;20039;-53
2024/03/16 05:03:17;;;;;;;4.47;4.00;;;;;;;;;;10452029;28;20025;-54
2024/03/16 05:08:18;;;;;;;4.07;3.55;;;;;;;;;;10452763;28;20431;-52
2024/03/16 05:13:18;;;;;;;4.25;3.85;;;;;;;;;;10441259;28;20033;-54
2024/03/16 05:18:19;;;;;;;4.25;3.85;;;;;;;;;;10447203;28;20098;-54
2024/03/16 05:23:19;;;;;;;4.35;3.95;;;;;;;;;;10446070;28;20159;-54
2024/03/16 05:28:20;;;;;;;4.85;4.00;;;;;;;;;;10451058;28;20048;-54
2024/03/16 05:33:20;;;;;;;6.53;4.03;;;;;;;;;;10443231;28;20030;-54
2024/03/16 05:38:23;;;;;;;5.18;3.88;;;;;;;;;;10446352;28;20373;-54
2024/03/16 05:43:24;;;;;;;4.80;3.65;;;;;;;;;;10450336;28;20029;-53
2024/03/16 05:48:24;;;;;;;4.20;3.65;;;;;;;;;;10450711;28;20044;-52
2024/03/16 05:53:25;;;;;;;3.60;3.30;;;;;;;;;;10449298;28;20041;-53
2024/03/16 05:58:25;;;;;;;3.78;3.38;;;;;;;;;;10435651;28;20029;-54
2024/03/16 06:03:27;;;;;;;12.38;3.80;;;;;;;;;;10450880;28;20384;-55
2024/03/16 06:08:27;;;;;;;5.13;3.90;;;;;;;;;;10438129;28;20264;-53
2024/03/16 06:13:28;;;;;;;5.93;3.78;;;;;;;;;;10438997;28;20252;-54
2024/03/16 06:18:29;;;;;;;4.13;3.72;;;;;;;;;;10449117;28;20033;-54
2024/03/16 06:23:29;;;;;;;7.38;3.55;;;;;;;;;;10445209;28;20040;-55
2024/03/16 06:28:30;;;;;;;4.55;3.92;;;;;;;;;;10438633;28;20632;-55
2024/03/16 06:33:30;;;;;;;3.90;3.55;;;;;;;;;;10448796;28;20555;-50
2024/03/16 06:38:31;;;;;;;4.45;3.70;;;;;;;;;;10448396;28;20044;-54
2024/03/16 06:43:32;;;;;;;4.35;3.95;;;;;;;;;;10447971;28;20053;-55
2024/03/16 06:48:33;;;;;;;3.83;3.42;;;;;;;;;;10448439;28;20032;-53
2024/03/16 06:53:33;;;;;;;4.43;3.58;;;;;;;;;;10435160;28;20902;-53
2024/03/16 06:58:34;;;;;;;3.55;3.25;;;;;;;;;;10445814;28;20032;-54
2024/03/16 07:03:34;;;;;;;5.10;3.70;;;;;;;;;;10435809;28;20029;-53
2024/03/16 07:08:38;;;;;;;4.90;3.45;;;;;;;;;;10435245;28;20045;-55
2024/03/16 07:13:39;;;;;;;4.70;3.47;;;;;;;;;;10445831;28;20029;-53
2024/03/16 07:18:42;;;;;;;4.95;3.45;;;;;;;;;;10445719;28;20033;-54
2024/03/16 07:23:43;;;;;;;7.18;3.72;;;;;;;;;;10444838;28;20033;-54
2024/03/16 07:28:44;;;;;;;5.50;3.35;;;;;;;;;;10445499;28;20497;-55
2024/03/16 07:33:44;;;;;;;9.57;2.90;;;;;;;;;;10446316;28;20024;-53
2024/03/16 07:38:45;;;;;;;4.00;3.38;;;;;;;;;;10445800;28;20032;-52
2024/03/16 07:43:46;;;;;;;5.47;3.20;;;;;;;;;;10434909;28;20041;-53
2024/03/16 07:48:46;;;;;;;5.68;3.65;;;;;;;;;;10446021;28;20051;-54
2024/03/16 07:53:47;;;;;;;13.13;3.80;;;;;;;;;;10442227;28;20385;-53
2024/03/16 07:58:47;;;;;;;3.35;3.13;;;;;;;;;;10437398;28;20755;-53
2024/03/16 08:03:48;;;;;;;9.82;3.33;;;;;;;;;;10441111;28;20400;-55
2024/03/16 08:08:49;;;;;;;5.35;3.40;;;;;;;;;;10434893;28;20028;-53
2024/03/16 08:13:50;;;;;;;6.35;3.65;;;;;;;;;;10427366;28;20033;-55
2024/03/16 08:18:51;;;;;;;5.10;4.07;;;;;;;;;;10436820;28;20060;-54
2024/03/16 08:23:51;;;;;;;13.25;3.40;;;;;;;;;;10444162;28;20025;-50
2024/03/16 08:28:52;;;;;;;7.15;3.60;;;;;;;;;;10450163;28;20025;-54
2024/03/16 08:33:53;;;;;;;17.55;8.25;;;;;;;;;;10441915;28;20032;-52
2024/03/16 08:38:53;;;;;;;41.92;29.17;;;;;;;;;;10425484;28;20064;-54
2024/03/16 08:43:54;;;;;;;45.10;25.95;;;;;;;;;;10425836;28;20041;-55
2024/03/16 08:48:54;;;;;;;37.03;26.13;;;;;;;;;;10421909;28;20025;-54
2024/03/16 08:53:55;;;;;;;39.83;27.88;;;;;;;;;;10424806;28;20037;-54
2024/03/16 08:58:56;;;;;;;39.58;27.70;;;;;;;;;;10415301;28;20443;-56
2024/03/16 09:03:57;;;;;;;37.72;27.65;;;;;;;;;;10431153;28;20037;-54
2024/03/16 09:08:59;;;;;;;38.97;24.30;;;;;;;;;;10435932;28;20025;-55
2024/03/16 09:13:59;;;;;;;44.13;23.92;;;;;;;;;;10438995;28;20029;-65
2024/03/16 09:19:01;;;;;;;48.97;22.80;;;;;;;;;;10442188;28;20513;-64
2024/03/16 09:24:03;;;;;;;37.50;21.08;;;;;;;;;;10446948;28;20055;-55
2024/03/16 09:29:04;;;;;;;42.60;21.65;;;;;;;;;;10431332;28;20037;-54
2024/03/16 09:34:06;;;;;;;26.40;18.73;;;;;;;;;;10440964;28;20029;-65
2024/03/16 09:39:10;;;;;;;30.45;18.23;;;;;;;;;;10441305;28;20033;-63
2024/03/16 09:44:14;;;;;;;31.90;17.40;;;;;;;;;;10435111;28;20099;-65
2024/03/16 09:49:15;;;;;;;28.27;17.70;;;;;;;;;;10423125;28;20488;-65
2024/03/16 09:54:16;;;;;;;28.73;17.10;;;;;;;;;;10440377;28;20047;-64
2024/03/16 09:59:17;;;;;;;32.08;17.30;;;;;;;;;;10436434;28;20037;-62
2024/03/16 10:04:17;;;;;;;34.13;16.95;;;;;;;;;;10450122;28;20033;-55
2024/03/16 10:09:18;;;;;;;28.27;16.75;;;;;;;;;;10444958;28;20503;-64
2024/03/16 10:14:19;;;;;;;34.05;18.17;;;;;;;;;;10440092;28;20476;-61
2024/03/16 10:19:20;;;;;;;31.50;16.48;;;;;;;;;;10437008;28;20025;-59
2024/03/16 10:24:22;;;;;;;51.20;18.38;;;;;;;;;;10430468;28;20037;-53
2024/03/16 10:29:24;;;;;;;41.92;18.73;;;;;;;;;;10421888;28;20190;-55
2024/03/16 10:34:28;;;;;;;40.78;17.48;;;;;;;;;;10433790;28;20104;-54
2024/03/16 10:39:35;;;;;;;40.25;19.00;;;;;;;;;;10433101;28;20021;-60
2024/03/16 10:44:36;;;;;;;39.22;16.98;;;;;;;;;;10441769;28;20085;-54
2024/03/16 10:49:37;;;;;;;36.28;16.83;;;;;;;;;;10441998;28;20029;-55
2024/03/16 10:54:37;;;;;;;36.35;17.17;;;;;;;;;;10418953;28;20028;-53
2024/03/16 10:59:42;;;;;;;28.38;16.10;;;;;;;;;;10443576;28;20018;-56
2024/03/16 11:04:52;;;;;;;38.55;16.70;;;;;;;;;;10440716;28;20040;-54
2024/03/16 11:09:56;;;;;;;31.63;16.25;;;;;;;;;;10443092;28;20488;-54
2024/03/16 11:15:32;;;;;;;39.75;15.35;;;;;;;;;;10432152;28;20017;-53
2024/03/16 11:20:38;;;;;;;27.90;15.10;;;;;;;;;;10430654;28;20399;-56
2024/03/16 11:25:38;;;;;;;26.10;14.25;;;;;;;;;;10440788;28;20025;-53
2024/03/16 11:30:39;;;;;;;23.27;14.20;;;;;;;;;;10434073;28;20033;-53
2024/03/16 11:35:40;;;;;;;36.95;14.05;;;;;;;;;;10433995;28;20021;-54
2024/03/16 11:40:48;;;;;;;25.42;13.50;;;;;;;;;;10435930;28;20458;-55
2024/03/16 11:45:49;;;;;;;;;;;;;;;;;;10442232;28;20627;-52
2024/03/16 11:50:50;;;;;;;22.45;12.90;;;;;;;;;;10434183;28;20098;-52
2024/03/16 11:55:51;;;;;;;25.15;12.20;;;;;;;;;;10443612;28;20056;-54
2024/03/16 12:00:52;;;;;;;18.50;12.15;;;;;;;;;;10436927;28;20033;-54
2024/03/16 12:05:52;;;;;;;27.13;12.68;;;;;;;;;;10437966;28;20032;-54
2024/03/16 12:10:53;;;;;;;22.02;11.95;;;;;;;;;;10440717;28;20025;-54
2024/03/16 12:15:54;;;;;;;16.25;10.27;;;;;;;;;;10425136;28;20029;-53
2024/03/16 12:20:56;;;;;;;22.67;11.85;;;;;;;;;;10436678;28;20041;-53
2024/03/16 12:25:58;;;;;;;19.55;11.15;;;;;;;;;;10441413;28;20095;-56
2024/03/16 12:30:59;;;;;;;20.95;11.25;;;;;;;;;;10446436;28;20021;-55
2024/03/16 12:35:59;;;;;;;20.27;11.15;;;;;;;;;;10382559;28;20106;-61
2024/03/16 12:41:01;;;;;;;25.00;10.70;;;;;;;;;;10330718;28;20549;-59
2024/03/16 12:46:02;;;;;;;14.90;9.38;;;;;;;;;;10327974;28;20502;-55
2024/03/16 12:51:04;;;;;;;20.73;9.98;;;;;;;;;;10317538;28;20023;-56
2024/03/16 12:56:07;;;;;;;16.65;9.85;;;;;;;;;;10317755;28;20035;-53
2024/03/16 13:01:14;;;;;;;17.20;10.25;;;;;;;;;;10330172;28;20081;-53
2024/03/16 13:06:15;;;;;;;16.38;9.27;;;;;;;;;;10326297;28;20066;-64
2024/03/16 13:11:17;;;;;;;14.77;8.70;;;;;;;;;;10323744;28;20486;-54
2024/03/16 13:16:18;;;;;;;15.13;8.80;;;;;;;;;;10326745;28;20027;-59
2024/03/16 13:21:18;;;;;;;11.60;8.80;;;;;;;;;;10265914;28;20093;-57
2024/03/16 13:26:19;;;;;;;14.02;8.85;;;;;;;;;;10284542;28;20030;-55
2024/03/16 13:31:20;;;;;;;16.55;9.10;;;;;;;;;;10307187;28;20026;-56
2024/03/16 13:36:21;;;;;;;18.10;9.68;;;;;;;;;;10323572;28;20697;-55
2024/03/16 13:41:22;;;;;;;11.85;8.52;;;;;;;;;;10309909;28;20549;-65
2024/03/16 13:46:23;;;;;;;15.13;8.43;;;;;;;;;;10302900;28;20111;-54
2024/03/16 13:51:29;;;;;;;15.93;8.23;;;;;;;;;;10311670;28;20054;-61
2024/03/16 13:56:30;;;;;;;14.60;8.35;;;;;;;;;;10317810;28;20030;-57
2024/03/16 14:01:33;;;;;;;14.00;8.82;;;;;;;;;;10318332;28;20481;-53
2024/03/16 14:06:34;;;;;;;19.10;9.48;;;;;;;;;;10311887;28;20033;-60
2024/03/16 14:11:35;;;;;;;23.05;9.30;;;;;;;;;;10326587;28;20150;-60
2024/03/16 14:16:37;;;;;;;17.42;9.23;;;;;;;;;;10323930;28;20027;-62
2024/03/16 14:21:39;;;;;;;22.73;9.57;;;;;;;;;;10307355;28;20042;-59
2024/03/16 14:26:43;;;;;;;21.58;9.50;;;;;;;;;;10307648;28;20034;-53
2024/03/16 14:31:44;;;;;;;14.38;8.98;;;;;;;;;;10316709;28;20058;-63
2024/03/16 14:36:45;;;;;;;17.42;9.65;;;;;;;;;;10318261;28;20121;-53
2024/03/16 14:41:46;;;;;;;13.02;8.95;;;;;;;;;;10314548;28;20041;-52
2024/03/16 14:46:50;;;;;;;15.15;8.77;;;;;;;;;;10318283;28;20062;-55
2024/03/16 14:51:55;;;;;;;14.65;8.93;;;;;;;;;;10314603;28;20398;-54
2024/03/16 14:56:57;;;;;;;16.55;8.98;;;;;;;;;;10302511;28;20498;-52
2024/03/16 15:01:58;;;;;;;13.43;8.90;;;;;;;;;;10294204;28;20040;-52
2024/03/16 15:07:00;;;;;;;14.13;8.13;;;;;;;;;;10316145;28;20102;-53
2024/03/16 15:12:01;;;;;;;12.68;7.65;;;;;;;;;;10321373;28;20027;-53
2024/03/16 15:17:03;;;;;;;15.95;8.40;;;;;;;;;;10300963;28;20049;-50
2024/03/16 15:22:03;;;;;;;14.13;8.20;;;;;;;;;;10315628;28;20042;-50
2024/03/16 15:27:27;;;;;;;11.45;8.05;;;;;;;;;;10309582;28;20052;-52
2024/03/16 15:32:27;;;;;;;12.15;8.13;;;;;;;;;;10313294;28;20061;-49
2024/03/16 15:37:28;;;;;;;13.35;8.57;;;;;;;;;;10328714;28;20037;-53
2024/03/16 15:42:29;;;;;;;15.10;8.13;;;;;;;;;;10317339;28;20030;-57
2024/03/16 15:47:32;;;;;;;14.43;8.23;;;;;;;;;;10322040;28;20046;-53
2024/03/16 15:52:33;;;;;;;19.40;7.63;;;;;;;;;;10310368;28;20053;-54
2024/03/16 15:57:35;;;;;;;10.00;7.28;;;;;;;;;;10318381;28;20366;-54
2024/03/16 16:02:35;;;;;;;10.73;7.45;;;;;;;;;;10289989;28;20035;-54
2024/03/16 16:07:36;;;;;;;12.13;7.20;;;;;;;;;;10325390;28;20923;-53
2024/03/16 16:12:36;;;;;;;8.50;6.43;;;;;;;;;;10315193;28;20043;-54
2024/03/16 16:17:37;;;;;;;9.48;7.00;;;;;;;;;;10325067;28;20030;-54
2024/03/16 16:22:38;;;;;;;10.70;6.65;;;;;;;;;;10329600;28;20045;-53
2024/03/16 16:27:38;;;;;;;8.25;6.60;;;;;;;;;;10330688;28;20026;-51
2024/03/16 16:32:39;;;;;;;13.30;6.90;;;;;;;;;;10322696;28;20026;-53
2024/03/16 16:37:39;;;;;;;11.45;6.60;;;;;;;;;;10323753;28;20034;-53
2024/03/16 16:42:40;;;;;;;9.77;7.25;;;;;;;;;;10325617;28;20023;-53
2024/03/16 16:47:41;;;;;;;11.48;7.22;;;;;;;;;;10325131;28;20030;-53
2024/03/16 16:52:44;;;;;;;8.57;5.63;;;;;;;;;;10315041;28;20033;-53
2024/03/16 16:57:45;;;;;;;8.65;6.47;;;;;;;;;;10312025;28;20054;-49
2024/03/16 17:02:45;;;;;;;8.52;7.00;;;;;;;;;;10280202;28;20038;-53
2024/03/16 17:07:46;;;;;;;9.63;6.47;;;;;;;;;;10328102;28;20422;-54
2024/03/16 17:12:46;;;;;;;8.10;6.65;;;;;;;;;;10331219;28;20029;-53
2024/03/16 17:17:47;;;;;;;9.90;6.50;;;;;;;;;;10329131;28;20518;-52
2024/03/16 17:22:48;;;;;;;11.73;6.68;;;;;;;;;;10327350;28;20018;-53
2024/03/16 17:27:49;;;;;;;9.93;7.45;;;;;;;;;;10335773;28;20037;-53
2024/03/16 17:32:49;;;;;;;10.40;6.88;;;;;;;;;;10328592;28;20113;-53
2024/03/16 17:37:50;;;;;;;8.90;6.57;;;;;;;;;;10329682;28;20030;-54
2024/03/16 17:42:50;;;;;;;10.65;6.75;;;;;;;;;;10326453;28;20565;-63
2024/03/16 17:47:51;;;;;;;11.40;6.95;;;;;;;;;;10322777;28;20525;-63
2024/03/16 17:52:52;;;;;;;11.63;6.60;;;;;;;;;;10333415;28;20579;-65
2024/03/16 17:57:58;;;;;;;7.40;5.82;;;;;;;;;;10326939;28;20466;-63
2024/03/16 18:03:00;;;;;;;8.63;6.18;;;;;;;;;;10317257;28;20033;-63
2024/03/16 18:08:01;;;;;;;8.80;6.40;;;;;;;;;;10320846;28;20085;-65
2024/03/16 18:13:02;;;;;;;9.43;6.70;;;;;;;;;;10316803;28;20042;-64
2024/03/16 18:18:04;;;;;;;8.75;6.63;;;;;;;;;;10319587;28;20462;-65
2024/03/16 18:23:05;;;;;;;7.88;6.32;;;;;;;;;;10325294;28;20468;-66
2024/03/16 18:28:06;;;;;;;13.15;5.97;;;;;;;;;;10320827;28;20027;-63
2024/03/16 18:33:08;;;;;;;7.20;5.38;;;;;;;;;;10321477;28;20037;-59
2024/03/16 18:38:08;;;;;;;5.90;5.20;;;;;;;;;;10324188;28;20072;-66
2024/03/16 18:43:12;;;;;;;6.43;5.35;;;;;;;;;;10319757;28;20568;-61
2024/03/16 18:48:12;;;;;;;7.35;5.28;;;;;;;;;;10317341;28;20030;-61
2024/03/16 18:53:13;;;;;;;5.90;5.05;;;;;;;;;;10320943;28;20026;-52
2024/03/16 18:58:13;;;;;;;8.27;5.47;;;;;;;;;;10319343;28;20100;-53
2024/03/16 19:03:14;;;;;;;7.72;5.57;;;;;;;;;;10323050;28;20023;-51
2024/03/16 19:08:15;;;;;;;12.77;5.43;;;;;;;;;;10323100;28;20052;-53
2024/03/16 19:13:15;;;;;;;11.32;6.00;;;;;;;;;;10329440;28;20486;-57
2024/03/16 19:18:16;;;;;;;10.00;5.57;;;;;;;;;;10323208;28;20030;-55
2024/03/16 19:23:17;;;;;;;7.97;4.95;;;;;;;;;;10328078;28;20352;-50
2024/03/16 19:28:18;;;;;;;6.18;5.45;;;;;;;;;;10330724;28;20057;-54
2024/03/16 19:33:18;;;;;;;7.78;6.53;;;;;;;;;;10321748;28;20497;-53
2024/03/16 19:38:20;;;;;;;11.40;7.07;;;;;;;;;;10316087;28;20474;-52
2024/03/16 19:43:20;;;;;;;9.18;6.43;;;;;;;;;;10338017;28;20094;-52
2024/03/16 19:48:21;;;;;;;9.75;6.68;;;;;;;;;;10333336;28;20101;-54
2024/03/16 19:53:21;;;;;;;11.57;6.95;;;;;;;;;;10330650;28;20038;-51
2024/03/16 19:58:22;;;;;;;9.93;7.40;;;;;;;;;;10335573;28;20044;-51
2024/03/16 20:03:25;;;;;;;12.32;7.20;;;;;;;;;;10347418;28;20053;-51
2024/03/16 20:08:25;;;;;;;10.02;6.63;;;;;;;;;;10336671;28;20042;-52
2024/03/16 20:13:26;;;;;;;9.00;6.82;;;;;;;;;;10331408;28;20030;-53
2024/03/16 20:18:26;;;;;;;11.93;6.95;;;;;;;;;;10322157;28;20372;-50
2024/03/16 20:23:28;;;;;;;11.88;6.38;;;;;;;;;;10338888;28;20620;-52
2024/03/16 20:28:28;;;;;;;9.63;6.60;;;;;;;;;;10334661;28;20058;-52
2024/03/16 20:33:29;;;;;;;7.43;6.25;;;;;;;;;;10326110;28;20023;-55
2024/03/16 20:38:30;;;;;;;13.18;6.53;;;;;;;;;;10330511;28;20034;-52
2024/03/16 20:43:30;;;;;;;7.75;6.05;;;;;;;;;;10319578;28;20124;-51
2024/03/16 20:48:31;;;;;;;8.63;6.30;;;;;;;;;;10330215;28;20038;-51
2024/03/16 20:53:32;;;;;;;7.50;5.88;;;;;;;;;;10329874;28;20030;-52
2024/03/16 20:58:33;;;;;;;6.82;6.13;;;;;;;;;;10328520;28;20026;-53
2024/03/16 21:03:33;;;;;;;8.98;5.70;;;;;;;;;;10330211;28;20030;-54
2024/03/16 21:08:34;;;;;;;7.75;5.13;;;;;;;;;;10330353;28;20098;-53
2024/03/16 21:13:38;;;;;;;8.35;6.00;;;;;;;;;;10329199;28;20027;-55
2024/03/16 21:18:39;;;;;;;9.75;5.97;;;;;;;;;;10327596;28;20128;-53
2024/03/16 21:23:44;;;;;;;7.18;5.25;;;;;;;;;;10328547;28;20073;-54
2024/03/16 21:28:44;;;;;;;11.32;5.90;;;;;;;;;;10326233;28;20093;-52
2024/03/16 21:33:45;;;;;;;6.88;5.45;;;;;;;;;;10331474;28;20408;-52
2024/03/16 21:38:46;;;;;;;8.20;6.25;;;;;;;;;;10334431;28;20080;-49
2024/03/16 21:43:46;;;;;;;7.13;5.40;;;;;;;;;;10329363;28;20059;-49
2024/03/16 21:48:47;;;;;;;9.68;5.25;;;;;;;;;;10331263;28;20385;-50
2024/03/16 21:53:48;;;;;;;8.18;5.72;;;;;;;;;;10330169;28;20042;-52
2024/03/16 21:58:48;;;;;;;8.70;5.25;;;;;;;;;;10344751;28;20030;-51
2024/03/16 22:03:49;;;;;;;12.27;5.65;;;;;;;;;;10337135;28;20057;-49
2024/03/16 22:08:50;;;;;;;9.98;5.05;;;;;;;;;;10329786;28;20042;-50
2024/03/16 22:13:50;;;;;;;7.43;5.00;;;;;;;;;;10328675;28;20041;-50
2024/03/16 22:18:51;;;;;;;7.95;5.00;;;;;;;;;;10331133;28;20038;-48
2024/03/16 22:23:52;;;;;;;5.90;4.80;;;;;;;;;;10349361;28;20534;-53
2024/03/16 22:28:53;;;;;;;6.60;5.45;;;;;;;;;;10339430;28;20445;-53
2024/03/16 22:33:55;;;;;;;6.45;5.53;;;;;;;;;;10335812;28;20092;-50
2024/03/16 22:38:55;;;;;;;13.50;5.75;;;;;;;;;;10325800;28;20049;-58
2024/03/16 22:43:56;;;;;;;10.10;5.13;;;;;;;;;;10317835;28;20376;-57
2024/03/16 22:48:58;;;;;;;7.53;5.60;;;;;;;;;;10320898;28;20030;-54
2024/03/16 22:53:59;;;;;;;6.35;4.93;;;;;;;;;;10326271;28;20041;-54
2024/03/16 22:58:59;;;;;;;5.78;4.55;;;;;;;;;;10327562;28;20037;-54
2024/03/16 23:04:00;;;;;;;13.38;4.72;;;;;;;;;;10332142;28;20034;-54
2024/03/16 23:09:02;;;;;;;5.30;4.80;;;;;;;;;;10326439;28;20091;-55
2024/03/16 23:14:02;;;;;;;8.23;5.30;;;;;;;;;;10327070;28;20080;-54
2024/03/16 23:19:03;;;;;;;6.55;5.10;;;;;;;;;;10328483;28;20092;-55
2024/03/16 23:24:04;;;;;;;8.27;5.10;;;;;;;;;;10324626;28;20520;-56
2024/03/16 23:29:05;;;;;;;5.90;4.57;;;;;;;;;;10322186;28;20470;-55
2024/03/16 23:34:05;;;;;;;7.03;4.50;;;;;;;;;;10324297;28;20060;-55
2024/03/16 23:39:10;;;;;;;7.82;5.00;;;;;;;;;;10318543;28;20488;-55
2024/03/16 23:44:11;;;;;;;5.40;4.25;;;;;;;;;;10325801;28;20065;-54
2024/03/16 23:49:11;;;;;;;5.25;4.72;;;;;;;;;;10325952;28;20037;-55
2024/03/16 23:54:17;;;;;;;5.22;4.72;;;;;;;;;;10323800;28;20073;-58
2024/03/16 23:59:18;;;;;;;8.38;4.65;;;;;;;;;;10312483;28;20130;-57
